Time;durP1;ratioP1;P1;durP2;ratioP2;P2;SDS_P1;SDS_P2;PMS_P1;PMS_P2;Temp;Humidity;BMP_temperature;BMP_pressure;BME280_temperature;BME280_humidity;BME280_pressure;Samples;Min_cycle;Max_cycle;Signal;HPM_P1;HPM_P2
2022/04/02 00:00:24;;;;;;;3.50;2.07;;;2.00;88.00;;;;;;5010946;28;20203;-88
2022/04/02 00:02:50;;;;;;;6.73;2.27;;;2.00;88.10;;;;;;5011195;28;20181;-86
2022/04/02 00:05:15;;;;;;;5.67;2.53;;;2.00;88.20;;;;;;5010991;28;20209;-87
2022/04/02 00:07:41;;;;;;;8.00;2.10;;;1.90;88.10;;;;;;5012248;28;20411;-88
2022/04/02 00:10:07;;;;;;;3.60;2.47;;;1.90;88.20;;;;;;5012478;28;20189;-87
2022/04/02 00:12:33;;;;;;;5.57;2.33;;;1.80;88.20;;;;;;5010627;28;20200;-88
2022/04/02 00:14:58;;;;;;;3.27;2.00;;;1.70;88.00;;;;;;5012047;28;20961;-88
2022/04/02 00:17:24;;;;;;;3.57;2.30;;;1.70;88.30;;;;;;5010796;28;20714;-88
2022/04/02 00:19:49;;;;;;;5.17;2.20;;;1.70;88.50;;;;;;5010762;28;20224;-88
2022/04/02 00:22:16;;;;;;;7.37;2.07;;;1.60;88.70;;;;;;5010732;28;20327;-87
2022/04/02 00:24:42;;;;;;;3.30;2.30;;;1.60;88.80;;;;;;5010439;28;20213;-87
2022/04/02 00:27:08;;;;;;;3.20;2.43;;;1.50;89.00;;;;;;5011080;28;20412;-87
2022/04/02 00:29:34;;;;;;;5.73;2.53;;;1.40;89.30;;;;;;5010677;28;20188;-87
2022/04/02 00:32:00;;;;;;;4.30;2.00;;;1.40;89.40;;;;;;5011841;28;20205;-86
2022/04/02 00:34:25;;;;;;;4.00;2.53;;;1.30;89.50;;;;;;5010842;28;20455;-87
2022/04/02 00:36:51;;;;;;;4.50;2.17;;;1.30;89.60;;;;;;5010826;28;20455;-87
2022/04/02 00:39:16;;;;;;;4.07;2.00;;;1.20;89.70;;;;;;5010493;28;20246;-87
2022/04/02 00:41:42;;;;;;;4.73;2.23;;;1.20;89.90;;;;;;5010515;28;20201;-88
2022/04/02 00:44:13;;;;;;;1.97;1.83;;;1.10;90.10;;;;;;5011690;28;20642;-87
2022/04/02 00:46:42;;;;;;;6.07;2.03;;;1.10;90.20;;;;;;5011949;28;20166;-87
2022/04/02 00:49:09;;;;;;;6.93;2.20;;;1.00;90.50;;;;;;5010602;28;20465;-86
2022/04/02 00:51:41;;;;;;;6.90;2.30;;;1.00;90.60;;;;;;5010176;28;20440;-87
2022/04/02 00:54:09;;;;;;;2.30;1.90;;;1.00;90.60;;;;;;5009802;28;20802;-88
2022/04/02 00:56:36;;;;;;;7.40;2.27;;;0.90;90.60;;;;;;5010019;28;20455;-87
2022/04/02 00:59:01;;;;;;;3.90;2.20;;;0.90;90.80;;;;;;5009737;28;20482;-89
2022/04/02 01:01:27;;;;;;;4.47;2.40;;;0.90;90.90;;;;;;5009133;28;20478;-87
2022/04/02 01:03:52;;;;;;;3.20;2.07;;;0.90;91.10;;;;;;5010003;28;20223;-88
2022/04/02 01:06:18;;;;;;;5.80;1.93;;;0.90;91.20;;;;;;5010195;28;20184;-88
2022/04/02 01:08:44;;;;;;;2.60;1.97;;;0.90;91.20;;;;;;5010109;28;20328;-87
2022/04/02 01:11:10;;;;;;;2.13;1.80;;;0.90;91.20;;;;;;5009632;28;20984;-87
2022/04/02 01:13:35;;;;;;;4.20;1.87;;;0.90;91.30;;;;;;5010915;28;20177;-87
2022/04/02 01:16:01;;;;;;;5.90;2.57;;;0.80;91.20;;;;;;5010639;28;20173;-86
2022/04/02 01:18:27;;;;;;;2.70;2.20;;;0.80;91.30;;;;;;5009681;28;20547;-87
2022/04/02 01:20:58;;;;;;;3.43;1.93;;;0.80;91.50;;;;;;5009455;28;20583;-87
2022/04/02 01:23:29;;;;;;;3.40;2.20;;;0.80;91.50;;;;;;5009533;28;20531;-86
2022/04/02 01:26:04;;;;;;;4.77;2.20;;;0.80;91.40;;;;;;5009603;28;20864;-87
2022/04/02 01:28:36;;;;;;;2.63;1.90;;;0.80;91.30;;;;;;5042814;28;20423;-86
2022/04/02 01:31:05;;;;;;;2.43;1.70;;;0.80;91.40;;;;;;5011145;28;20436;-86
2022/04/02 01:33:31;;;;;;;5.23;2.40;;;0.80;91.30;;;;;;5009700;28;20464;-87
2022/04/02 01:35:58;;;;;;;5.63;2.03;;;0.70;91.30;;;;;;5010127;28;20475;-87
2022/04/02 01:38:24;;;;;;;3.30;2.23;;;0.70;91.40;;;;;;5009308;28;20544;-87
2022/04/02 01:40:49;;;;;;;8.70;2.40;;;0.70;91.40;;;;;;5009143;28;20552;-88
2022/04/02 01:43:15;;;;;;;5.83;2.10;;;0.70;91.50;;;;;;5009413;28;20179;-87
2022/04/02 01:45:40;;;;;;;2.37;2.03;;;0.70;91.40;;;;;;5009342;28;20660;-85
2022/04/02 01:48:06;;;;;;;2.53;2.40;;;0.70;91.70;;;;;;5009354;28;20177;-87
2022/04/02 01:50:32;;;;;;;6.40;2.20;;;0.60;91.60;;;;;;5009142;28;20714;-87
2022/04/02 01:52:58;;;;;;;5.40;3.10;;;0.60;91.70;;;;;;5009125;28;20656;-87
2022/04/02 01:55:23;;;;;;;4.37;2.47;;;0.60;91.70;;;;;;5009094;28;20429;-87
2022/04/02 01:57:49;;;;;;;3.43;2.00;;;0.60;91.80;;;;;;5009229;28;20677;-87
2022/04/02 02:00:15;;;;;;;3.80;2.10;;;0.60;91.90;;;;;;5009406;28;20205;-87
2022/04/02 02:02:41;;;;;;;4.60;2.30;;;0.60;91.80;;;;;;5008844;28;20260;-87
2022/04/02 02:05:07;;;;;;;4.80;2.40;;;0.50;91.70;;;;;;5008949;28;20507;-87
2022/04/02 02:07:32;;;;;;;5.33;2.57;;;0.50;91.80;;;;;;5008782;28;20227;-87
2022/04/02 02:09:58;;;;;;;3.27;1.90;;;0.50;91.90;;;;;;5008896;28;20428;-88
2022/04/02 02:12:23;;;;;;;2.63;2.27;;;0.50;91.90;;;;;;5008516;28;20180;-87
2022/04/02 02:14:49;;;;;;;8.07;2.50;;;0.50;91.80;;;;;;5008574;28;20184;-85
2022/04/02 02:17:15;;;;;;;4.27;2.07;;;0.50;91.80;;;;;;5008827;28;20173;-87
2022/04/02 02:19:41;;;;;;;4.47;2.30;;;0.50;92.00;;;;;;5008307;28;20203;-87
2022/04/02 02:22:06;;;;;;;5.50;2.37;;;0.50;91.80;;;;;;5009561;28;20473;-87
2022/04/02 02:24:32;;;;;;;4.37;1.90;;;0.50;91.90;;;;;;5008471;28;20170;-87
2022/04/02 02:26:58;;;;;;;3.27;1.70;;;0.50;92.00;;;;;;5010341;28;20235;-87
2022/04/02 02:29:23;;;;;;;5.33;2.10;;;0.50;91.90;;;;;;5008738;28;20865;-87
2022/04/02 02:31:49;;;;;;;3.60;2.13;;;0.50;91.90;;;;;;5009836;28;20224;-88
2022/04/02 02:36:59;;;;;;;2.90;2.20;;;0.50;92.30;;;;;;5019542;28;20550;-87
2022/04/02 02:39:25;;;;;;;4.43;2.10;;;0.40;92.50;;;;;;4993449;28;20560;-87
2022/04/02 02:41:50;;;;;;;2.67;2.23;;;0.40;92.60;;;;;;5027966;28;20518;-87
2022/04/02 02:44:16;;;;;;;3.73;1.70;;;0.50;92.30;;;;;;5012053;28;20184;-87
2022/04/02 02:46:41;;;;;;;2.40;2.07;;;0.40;91.90;;;;;;5008253;28;20714;-88
2022/04/02 02:49:07;;;;;;;3.30;2.07;;;0.40;92.10;;;;;;5007913;28;20188;-86
2022/04/02 02:51:32;;;;;;;5.53;1.80;;;0.40;92.00;;;;;;5008207;28;20209;-87
2022/04/02 02:53:58;;;;;;;7.43;3.10;;;0.40;92.10;;;;;;5007964;28;20181;-87
2022/04/02 02:56:23;;;;;;;6.50;2.27;;;0.40;92.30;;;;;;5008024;28;20232;-87
2022/04/02 02:58:49;;;;;;;4.50;2.20;;;0.40;92.10;;;;;;5007690;28;20242;-87
2022/04/02 03:01:14;;;;;;;4.47;2.00;;;0.40;92.10;;;;;;5007773;28;20212;-87
2022/04/02 03:03:40;;;;;;;2.87;2.20;;;0.40;92.30;;;;;;5009176;28;20196;-85
2022/04/02 03:06:06;;;;;;;2.57;2.10;;;0.30;92.40;;;;;;5009486;28;20181;-87
2022/04/02 03:08:31;;;;;;;4.13;2.43;;;0.30;92.50;;;;;;5007877;28;20766;-87
2022/04/02 03:10:57;;;;;;;5.67;2.80;;;0.30;92.60;;;;;;5007609;28;20201;-87
2022/04/02 03:13:23;;;;;;;2.47;2.03;;;0.30;92.70;;;;;;5008000;28;20244;-87
2022/04/02 03:15:48;;;;;;;1.93;1.80;;;0.20;92.80;;;;;;5007948;28;20420;-87
2022/04/02 03:18:14;;;;;;;5.30;2.00;;;0.20;92.90;;;;;;5009087;28;20211;-87
2022/04/02 03:20:41;;;;;;;2.70;2.30;;;0.20;93.00;;;;;;5007534;28;20271;-87
2022/04/02 03:23:06;;;;;;;4.17;2.23;;;0.20;93.20;;;;;;5007827;28;20685;-87
2022/04/02 03:25:32;;;;;;;4.57;2.40;;;0.20;93.40;;;;;;5010837;28;20534;-86
2022/04/02 03:27:58;;;;;;;3.03;1.77;;;0.10;93.60;;;;;;5012091;28;20222;-87
2022/04/02 03:30:26;;;;;;;3.40;2.03;;;0.10;93.60;;;;;;5011193;28;20475;-87
2022/04/02 03:32:52;;;;;;;6.10;2.53;;;0.10;93.80;;;;;;5011824;28;20408;-87
2022/04/02 03:35:18;;;;;;;5.83;2.10;;;0.10;94.10;;;;;;5011503;28;20423;-87
2022/04/02 03:37:47;;;;;;;6.00;2.30;;;0.10;94.20;;;;;;5011910;28;20570;-87
2022/04/02 03:40:16;;;;;;;4.10;2.87;;;0.00;94.50;;;;;;5011198;28;20444;-88
2022/04/02 03:42:44;;;;;;;3.03;2.00;;;0.00;94.60;;;;;;5011483;28;20424;-87
2022/04/02 03:45:13;;;;;;;5.80;2.10;;;0.00;94.90;;;;;;5028005;28;20418;-87
2022/04/02 03:47:40;;;;;;;3.20;2.50;;;0.00;95.00;;;;;;5031303;28;20429;-88
2022/04/02 03:50:07;;;;;;;3.50;2.30;;;0.00;95.10;;;;;;5030614;28;20434;-87
2022/04/02 03:52:32;;;;;;;3.43;2.43;;;0.00;95.30;;;;;;5030839;28;20840;-87
2022/04/02 03:54:58;;;;;;;11.87;2.30;;;0.00;95.40;;;;;;5030839;28;20620;-87
2022/04/02 03:57:24;;;;;;;2.40;2.27;;;0.00;95.50;;;;;;5032566;28;20173;-87
2022/04/02 03:59:50;;;;;;;6.97;2.60;;;0.00;95.70;;;;;;5030709;28;20204;-87
2022/04/02 04:02:15;;;;;;;4.83;2.23;;;0.00;95.90;;;;;;5031923;28;20411;-87
2022/04/02 04:04:41;;;;;;;5.80;2.60;;;0.00;96.00;;;;;;5030838;28;20407;-87
2022/04/02 04:07:07;;;;;;;5.33;2.40;;;-0.10;96.20;;;;;;5031095;28;20180;-87
2022/04/02 04:09:33;;;;;;;4.33;2.20;;;-0.10;96.30;;;;;;5032141;28;20263;-88
2022/04/02 04:11:59;;;;;;;6.50;2.30;;;-0.10;96.40;;;;;;5032093;28;20474;-87
2022/04/02 04:14:26;;;;;;;5.30;2.53;;;-0.10;96.50;;;;;;5031197;28;20439;-87
2022/04/02 04:16:52;;;;;;;5.80;1.80;;;-0.10;96.60;;;;;;5030693;28;20184;-87
2022/04/02 04:19:18;;;;;;;4.30;2.40;;;-0.10;96.70;;;;;;5030468;28;20463;-88
2022/04/02 04:21:43;;;;;;;2.17;1.70;;;-0.10;96.80;;;;;;5027556;28;20553;-87
2022/04/02 04:24:10;;;;;;;2.13;1.83;;;-0.10;96.90;;;;;;5010642;28;20926;-88
2022/04/02 04:26:36;;;;;;;2.13;2.00;;;-0.10;96.90;;;;;;5010714;28;20263;-87
2022/04/02 04:29:02;;;;;;;5.23;2.23;;;-0.10;96.90;;;;;;5010520;28;20425;-87
2022/04/02 04:31:28;;;;;;;8.40;2.17;;;-0.10;97.00;;;;;;5010546;28;20447;-87
2022/04/02 04:33:53;;;;;;;3.83;2.20;;;-0.10;97.10;;;;;;5010376;28;20214;-88
2022/04/02 04:36:19;;;;;;;3.10;1.87;;;-0.10;97.30;;;;;;5011934;28;20885;-87
2022/04/02 04:38:46;;;;;;;4.50;2.20;;;-0.10;97.30;;;;;;5008173;28;20213;-88
2022/04/02 04:41:13;;;;;;;4.17;2.13;;;-0.10;97.30;;;;;;5010531;28;21103;-89
2022/04/02 04:43:41;;;;;;;3.43;2.30;;;-0.10;97.30;;;;;;5002863;28;20939;-88
2022/04/02 04:46:07;;;;;;;2.40;2.20;;;-0.10;97.30;;;;;;5002036;28;20458;-88
2022/04/02 04:48:33;;;;;;;5.40;2.30;;;-0.10;97.30;;;;;;5003186;28;20468;-88
2022/04/02 04:50:58;;;;;;;9.10;3.10;;;0.00;97.30;;;;;;5004572;28;21017;-88
2022/04/02 04:53:27;;;;;;;4.73;2.40;;;-0.10;97.30;;;;;;5008522;28;20582;-88
2022/04/02 04:55:52;;;;;;;3.53;2.10;;;0.00;97.30;;;;;;5010520;28;20177;-87
2022/04/02 04:58:18;;;;;;;4.33;2.67;;;0.00;97.30;;;;;;5010900;28;21036;-87
2022/04/02 05:00:43;;;;;;;5.33;2.40;;;0.00;97.30;;;;;;5004807;28;20568;-87
2022/04/02 05:03:11;;;;;;;3.67;2.53;;;0.00;97.30;;;;;;5010699;28;20169;-89
2022/04/02 05:05:38;;;;;;;3.67;2.10;;;0.00;97.30;;;;;;5009196;28;20400;-87
2022/04/02 05:08:04;;;;;;;7.80;2.87;;;0.00;97.30;;;;;;5010060;28;20427;-87
2022/04/02 05:10:30;;;;;;;2.70;1.90;;;0.00;97.30;;;;;;5009246;28;20455;-85
2022/04/02 05:12:55;;;;;;;7.70;3.10;;;0.00;97.30;;;;;;5009387;28;20419;-87
2022/04/02 05:15:21;;;;;;;3.60;2.10;;;0.00;97.30;;;;;;5009698;28;20631;-87
2022/04/02 05:17:47;;;;;;;5.27;2.77;;;0.10;97.30;;;;;;5009767;28;20178;-86
2022/04/02 05:20:14;;;;;;;3.03;2.50;;;0.00;97.30;;;;;;5009345;28;20189;-87
2022/04/02 05:22:41;;;;;;;4.10;2.40;;;0.10;97.30;;;;;;5010889;28;20176;-86
2022/04/02 05:25:07;;;;;;;5.30;2.27;;;0.10;97.30;;;;;;5009327;28;20503;-87
2022/04/02 05:27:33;;;;;;;5.20;2.40;;;0.10;97.30;;;;;;5009565;28;20542;-87
2022/04/02 05:30:00;;;;;;;7.63;2.77;;;0.10;97.30;;;;;;5009301;28;20432;-88
2022/04/02 05:32:28;;;;;;;3.70;2.20;;;0.10;97.30;;;;;;5010032;28;20838;-87
2022/04/02 05:34:53;;;;;;;4.67;2.37;;;0.20;97.30;;;;;;5009293;28;20412;-88
2022/04/02 05:37:19;;;;;;;4.60;2.30;;;0.20;97.30;;;;;;5009583;28;20427;-87
2022/04/02 05:39:45;;;;;;;4.27;2.50;;;0.20;97.30;;;;;;5009342;28;20686;-87
2022/04/02 05:42:12;;;;;;;7.77;2.57;;;0.30;97.30;;;;;;5009259;28;20412;-88
2022/04/02 05:44:40;;;;;;;4.30;2.30;;;0.30;97.30;;;;;;5021335;28;20411;-86
2022/04/02 05:47:06;;;;;;;4.83;2.80;;;0.30;97.30;;;;;;5028978;28;20461;-87
2022/04/02 05:49:32;;;;;;;5.83;3.20;;;0.40;97.30;;;;;;5029550;28;20416;-87
2022/04/02 05:51:58;;;;;;;4.03;2.40;;;0.40;97.30;;;;;;5008995;28;20208;-88
2022/04/02 05:54:24;;;;;;;4.50;2.90;;;0.50;97.30;;;;;;5009268;28;20654;-87
2022/04/02 05:56:50;;;;;;;4.03;2.10;;;0.50;97.30;;;;;;5009038;28;20420;-87
2022/04/02 05:59:16;;;;;;;8.07;2.90;;;0.60;97.30;;;;;;5009086;28;20223;-87
2022/04/02 06:01:41;;;;;;;4.57;2.63;;;0.60;97.30;;;;;;5005611;28;20840;-88
2022/04/02 06:04:09;;;;;;;4.40;2.40;;;0.70;97.30;;;;;;5007673;28;20707;-88
2022/04/02 06:06:34;;;;;;;7.03;3.00;;;0.70;97.30;;;;;;5009721;28;20173;-87
2022/04/02 06:09:00;;;;;;;5.40;2.40;;;0.70;97.30;;;;;;5009791;28;20413;-87
2022/04/02 06:11:25;;;;;;;2.83;2.43;;;0.80;97.30;;;;;;5008020;28;20561;-88
2022/04/02 06:13:51;;;;;;;2.80;2.23;;;0.80;97.30;;;;;;5005742;28;20187;-87
2022/04/02 06:16:16;;;;;;;7.50;2.53;;;0.90;97.30;;;;;;5009141;28;20197;-88
2022/04/02 06:18:43;;;;;;;6.47;2.40;;;0.90;97.30;;;;;;5001299;28;20239;-88
2022/04/02 06:21:09;;;;;;;6.33;2.73;;;0.90;97.30;;;;;;4993207;28;20335;-87
2022/04/02 06:23:34;;;;;;;4.77;2.47;;;1.00;97.30;;;;;;5000568;28;20934;-88
2022/04/02 06:26:00;;;;;;;3.70;2.07;;;1.10;97.30;;;;;;5005265;28;20177;-87
2022/04/02 06:28:25;;;;;;;7.83;2.37;;;1.10;97.30;;;;;;5005259;28;20188;-88
2022/04/02 06:30:51;;;;;;;6.67;2.17;;;1.10;97.30;;;;;;5001106;28;20207;-87
2022/04/02 06:33:17;;;;;;;3.90;2.40;;;1.20;97.30;;;;;;5005142;28;20608;-87
2022/04/02 06:35:42;;;;;;;2.60;2.00;;;1.20;97.30;;;;;;4990281;28;20189;-87
2022/04/02 06:38:08;;;;;;;3.47;2.03;;;1.30;97.30;;;;;;4996617;28;20886;-87
2022/04/02 06:40:34;;;;;;;4.53;2.27;;;1.40;97.30;;;;;;5001584;28;20680;-88
2022/04/02 06:42:59;;;;;;;4.23;1.90;;;1.40;97.30;;;;;;5002249;28;20173;-88
2022/04/02 06:45:25;;;;;;;4.40;2.23;;;1.40;97.30;;;;;;5003093;28;20182;-88
2022/04/02 06:47:51;;;;;;;5.00;2.67;;;1.50;97.30;;;;;;5003410;28;20181;-87
2022/04/02 06:50:17;;;;;;;2.70;2.10;;;1.50;97.30;;;;;;4998631;28;20456;-88
2022/04/02 06:52:44;;;;;;;2.63;2.23;;;1.50;97.30;;;;;;4993491;28;20649;-88
2022/04/02 06:55:11;;;;;;;4.63;2.27;;;1.60;97.30;;;;;;5000790;28;20499;-88
2022/04/02 06:57:45;;;;;;;2.27;2.00;;;1.60;97.30;;;;;;5001732;28;20424;-87
2022/04/02 07:00:11;;;;;;;4.83;2.47;;;1.60;97.30;;;;;;4988975;28;20992;-87
2022/04/02 07:02:38;;;;;;;4.93;2.40;;;1.70;97.30;;;;;;5001204;28;20415;-88
2022/04/02 07:05:04;;;;;;;3.00;2.07;;;1.70;97.10;;;;;;4997755;28;20507;-87
2022/04/02 07:07:30;;;;;;;3.37;2.43;;;1.70;97.00;;;;;;4989100;28;20417;-87
2022/04/02 07:09:55;;;;;;;13.13;3.00;;;1.80;97.00;;;;;;4988377;28;20781;-88
2022/04/02 07:12:21;;;;;;;4.00;2.30;;;1.80;96.70;;;;;;4988024;28;20197;-87
2022/04/02 07:14:46;;;;;;;2.77;2.13;;;1.90;96.70;;;;;;4989575;28;20185;-87
2022/04/02 07:17:13;;;;;;;3.60;2.20;;;2.00;96.60;;;;;;4988338;28;20674;-87
2022/04/02 07:19:39;;;;;;;3.43;2.27;;;2.00;96.50;;;;;;4990546;28;20209;-88
2022/04/02 07:22:09;;;;;;;4.00;2.10;;;2.10;96.20;;;;;;5001557;28;20561;-87
2022/04/02 07:24:39;;;;;;;6.63;2.50;;;2.10;96.20;;;;;;4993311;28;20456;-88
2022/04/02 07:27:05;;;;;;;10.47;2.60;;;2.20;96.10;;;;;;5007950;28;20499;-87
2022/04/02 07:29:32;;;;;;;3.80;2.07;;;2.20;95.70;;;;;;5007823;28;20511;-87
2022/04/02 07:31:57;;;;;;;5.43;2.30;;;2.20;95.70;;;;;;5008210;28;20444;-87
2022/04/02 07:34:23;;;;;;;3.50;2.30;;;2.30;95.50;;;;;;5003850;28;20494;-87
2022/04/02 07:37:10;;;;;;;4.30;2.33;;;2.40;95.20;;;;;;4995074;28;20208;-88
2022/04/02 07:39:44;;;;;;;4.93;2.73;;;2.50;95.20;;;;;;5003125;28;20270;-87
2022/04/02 07:42:22;;;;;;;6.40;2.37;;;2.60;94.50;;;;;;5003588;28;20815;-87
2022/04/02 07:45:03;;;;;;;4.20;2.50;;;2.70;94.30;;;;;;4992986;28;20416;-87
2022/04/02 07:47:39;;;;;;;10.57;3.03;;;2.70;93.80;;;;;;4997523;28;21047;-85
2022/04/02 07:50:13;;;;;;;5.60;2.67;;;2.80;93.40;;;;;;5006809;28;20436;-88
2022/04/02 07:52:44;;;;;;;9.10;2.63;;;2.80;92.80;;;;;;5004932;28;20427;-88
2022/04/02 07:55:10;;;;;;;8.00;2.37;;;2.80;92.80;;;;;;5006566;28;20420;-89
2022/04/02 07:57:44;;;;;;;5.00;2.23;;;2.90;92.30;;;;;;5007000;28;20499;-88
2022/04/02 08:00:13;;;;;;;3.00;1.83;;;2.90;92.10;;;;;;5006600;28;21016;-87
2022/04/02 08:02:43;;;;;;;3.23;2.30;;;3.00;92.30;;;;;;5004105;28;20427;-88
2022/04/02 08:05:11;;;;;;;5.80;1.80;;;3.00;91.10;;;;;;5006500;28;20420;-87
2022/04/02 08:07:38;;;;;;;4.80;2.60;;;3.10;91.10;;;;;;5005340;28;20415;-87
2022/04/02 08:10:08;;;;;;;5.20;2.30;;;3.10;91.40;;;;;;5007737;28;20440;-87
2022/04/02 08:12:35;;;;;;;10.00;2.33;;;3.20;91.50;;;;;;5011175;28;20743;-87
2022/04/02 08:15:05;;;;;;;4.07;2.60;;;3.40;91.70;;;;;;5011036;28;20412;-87
2022/04/02 08:17:31;;;;;;;10.77;3.17;;;3.50;90.70;;;;;;5011039;28;20974;-87
2022/04/02 08:19:59;;;;;;;4.17;2.10;;;3.60;90.20;;;;;;5011028;28;20991;-86
2022/04/02 08:22:24;;;;;;;4.33;2.83;;;3.70;89.60;;;;;;5010710;28;20510;-87
2022/04/02 08:24:50;;;;;;;7.03;2.73;;;3.90;89.60;;;;;;5009079;28;20439;-87
2022/04/02 08:27:33;;;;;;;6.23;2.93;;;4.00;88.60;;;;;;5007326;28;20462;-88
2022/04/02 08:30:10;;;;;;;3.83;2.80;;;4.20;87.20;;;;;;5007648;28;20287;-86
2022/04/02 08:32:43;;;;;;;3.70;2.50;;;4.30;86.70;;;;;;5005880;28;20447;-87
2022/04/02 08:35:11;;;;;;;4.03;2.50;;;4.30;85.90;;;;;;5009950;28;20456;-87
2022/04/02 08:37:49;;;;;;;2.67;2.30;;;4.30;84.90;;;;;;5009887;28;20419;-87
2022/04/02 08:40:17;;;;;;;3.87;2.20;;;4.30;84.50;;;;;;5010359;28;20843;-87
2022/04/02 08:43:14;;;;;;;3.27;2.23;;;4.20;84.50;;;;;;5003950;28;20431;-87
2022/04/02 08:45:51;;;;;;;3.97;2.20;;;4.20;85.50;;;;;;4998980;28;20900;-88
2022/04/02 08:48:24;;;;;;;3.07;2.47;;;4.20;84.80;;;;;;5000595;28;20436;-86
2022/04/02 08:51:17;;;;;;;4.07;2.07;;;4.30;85.40;;;;;;4999428;28;20444;-86
2022/04/02 08:54:00;;;;;;;3.97;2.30;;;4.30;85.00;;;;;;5002429;28;20424;-87
2022/04/02 08:56:28;;;;;;;2.90;1.97;;;4.30;85.30;;;;;;5005186;28;20419;-87
2022/04/02 08:59:00;;;;;;;6.50;2.10;;;4.30;84.80;;;;;;5002704;28;20457;-87
2022/04/02 09:01:28;;;;;;;4.03;2.30;;;4.40;84.40;;;;;;5000778;28;20433;-86
2022/04/02 09:03:57;;;;;;;3.60;2.37;;;4.40;83.10;;;;;;5005320;28;20425;-86
2022/04/02 09:06:48;;;;;;;5.40;2.37;;;4.50;83.80;;;;;;5009790;28;20416;-88
2022/04/02 09:09:13;;;;;;;6.10;2.23;;;4.80;81.30;;;;;;5010022;28;20416;-86
2022/04/02 09:12:03;;;;;;;3.40;2.00;;;4.90;80.20;;;;;;5009797;28;21121;-87
2022/04/02 09:14:51;;;;;;;3.03;2.20;;;5.00;80.10;;;;;;5009705;28;20185;-86
2022/04/02 09:17:27;;;;;;;5.23;1.97;;;5.10;80.20;;;;;;5009917;28;20855;-87
2022/04/02 09:20:07;;;;;;;5.23;2.30;;;5.10;80.50;;;;;;5009761;28;20798;-87
2022/04/02 09:22:38;;;;;;;3.30;2.23;;;5.10;80.50;;;;;;4999239;28;20429;-87
2022/04/02 09:25:29;;;;;;;4.10;2.43;;;4.90;80.70;;;;;;4989750;28;20408;-87
2022/04/02 09:28:10;;;;;;;2.30;2.03;;;4.70;80.90;;;;;;4996822;28;20452;-87
2022/04/02 09:31:10;;;;;;;5.43;2.10;;;4.60;81.10;;;;;;5006377;28;20467;-87
2022/04/02 09:33:57;;;;;;;3.07;1.90;;;4.50;81.40;;;;;;5004803;28;20428;-87
2022/04/02 09:36:59;;;;;;;2.80;2.43;;;4.50;81.90;;;;;;5008272;28;20926;-87
2022/04/02 09:39:46;;;;;;;3.97;2.33;;;4.50;82.30;;;;;;4988027;28;20464;-86
2022/04/02 09:42:42;;;;;;;9.67;2.80;;;4.60;83.00;;;;;;4990147;28;20417;-88
2022/04/02 09:45:09;;;;;;;4.63;2.30;;;4.80;83.20;;;;;;4988550;28;20416;-85
2022/04/02 09:47:49;;;;;;;4.97;2.37;;;5.00;83.50;;;;;;5013140;28;20567;-87
2022/04/02 09:50:16;;;;;;;9.57;2.77;;;5.10;82.50;;;;;;5011533;28;20486;-87
2022/04/02 09:52:57;;;;;;;10.00;2.63;;;5.20;82.90;;;;;;5011989;28;20754;-87
2022/04/02 09:55:26;;;;;;;3.83;2.40;;;5.30;81.40;;;;;;5011083;28;20434;-86
2022/04/02 09:58:33;;;;;;;5.40;2.60;;;5.40;82.10;;;;;;5015508;28;20466;-87
2022/04/02 10:01:07;;;;;;;3.57;2.20;;;5.50;81.30;;;;;;5002531;28;20455;-86
2022/04/02 10:03:52;;;;;;;9.30;2.20;;;5.60;81.00;;;;;;5009975;28;20424;-87
2022/04/02 10:06:20;;;;;;;7.50;2.40;;;5.60;81.10;;;;;;5010837;28;20423;-86
2022/04/02 10:09:10;;;;;;;3.20;2.27;;;5.60;80.90;;;;;;5011056;28;20419;-87
2022/04/02 10:11:54;;;;;;;2.60;2.30;;;5.60;80.70;;;;;;5011718;28;20982;-87
2022/04/02 10:14:24;;;;;;;4.03;2.40;;;5.50;79.80;;;;;;5010858;28;20424;-87
2022/04/02 10:16:58;;;;;;;3.67;2.40;;;5.50;80.00;;;;;;5011964;28;20455;-87
2022/04/02 10:19:28;;;;;;;4.07;2.80;;;5.60;80.40;;;;;;5009667;28;20464;-86
2022/04/02 10:22:06;;;;;;;5.80;2.47;;;5.70;80.50;;;;;;5008340;28;20971;-87
2022/04/02 10:24:37;;;;;;;4.43;2.50;;;5.80;79.60;;;;;;5008624;28;20424;-87
2022/04/02 10:27:04;;;;;;;6.60;2.57;;;5.80;79.30;;;;;;5009119;28;20424;-87
2022/04/02 10:30:02;;;;;;;2.80;2.27;;;5.80;80.20;;;;;;5008079;28;20515;-87
2022/04/02 10:32:49;;;;;;;3.60;2.40;;;5.80;79.40;;;;;;5008543;28;20416;-87
2022/04/02 10:35:15;;;;;;;3.43;2.10;;;5.70;78.50;;;;;;5008143;28;20443;-87
2022/04/02 10:38:00;;;;;;;2.47;2.30;;;5.60;77.80;;;;;;5009962;28;20502;-87
2022/04/02 10:40:29;;;;;;;6.60;2.73;;;5.60;78.50;;;;;;5009766;28;20217;-87
2022/04/02 10:43:02;;;;;;;2.70;2.50;;;5.60;79.40;;;;;;5008561;28;20546;-87
2022/04/02 10:45:28;;;;;;;4.57;2.67;;;5.60;79.50;;;;;;5027035;28;20782;-87
2022/04/02 10:48:09;;;;;;;3.10;2.37;;;5.70;79.90;;;;;;5027888;28;20927;-87
2022/04/02 10:50:35;;;;;;;2.50;2.03;;;5.80;80.80;;;;;;5028027;28;20450;-87
2022/04/02 10:53:02;;;;;;;2.77;2.10;;;5.80;80.60;;;;;;5029112;28;20541;-87
2022/04/02 10:55:28;;;;;;;3.60;2.10;;;5.80;80.60;;;;;;5029853;28;20411;-87
2022/04/02 10:57:59;;;;;;;3.63;2.40;;;5.70;79.70;;;;;;5029919;28;20445;-87
2022/04/02 11:00:26;;;;;;;3.60;2.60;;;5.60;79.80;;;;;;5027759;28;20969;-87
2022/04/02 11:03:04;;;;;;;4.67;2.90;;;5.60;80.40;;;;;;5027571;28;20834;-87
2022/04/02 11:05:37;;;;;;;4.33;2.77;;;5.70;79.80;;;;;;5027558;28;20917;-86
2022/04/02 11:08:11;;;;;;;4.07;2.37;;;5.90;80.30;;;;;;5027649;28;20932;-87
2022/04/02 11:10:38;;;;;;;4.97;2.80;;;6.00;79.00;;;;;;5027407;28;20431;-87
2022/04/02 11:13:06;;;;;;;3.77;2.70;;;6.30;79.30;;;;;;5027253;28;20937;-87
2022/04/02 11:15:40;;;;;;;3.40;2.63;;;6.50;78.20;;;;;;5028777;28;20403;-86
2022/04/02 11:18:17;;;;;;;5.07;2.70;;;6.50;77.40;;;;;;5028864;28;20482;-87
2022/04/02 11:20:44;;;;;;;3.27;2.87;;;6.50;77.90;;;;;;5027504;28;20493;-87
2022/04/02 11:23:14;;;;;;;3.70;2.27;;;6.40;78.00;;;;;;5014730;28;20752;-87
2022/04/02 11:25:46;;;;;;;5.47;2.60;;;6.30;78.60;;;;;;5007635;28;20416;-88
2022/04/02 11:28:20;;;;;;;3.37;2.93;;;6.20;79.70;;;;;;5005116;28;20472;-87
2022/04/02 11:31:01;;;;;;;4.20;2.43;;;6.20;79.30;;;;;;5006726;28;20440;-87
2022/04/02 11:33:27;;;;;;;5.60;2.50;;;6.20;78.70;;;;;;5006373;28;20451;-88
2022/04/02 11:35:55;;;;;;;4.73;2.53;;;6.30;78.70;;;;;;5007696;28;20424;-88
2022/04/02 11:38:21;;;;;;;8.43;2.60;;;6.40;78.40;;;;;;5007865;28;20228;-87
2022/04/02 11:41:14;;;;;;;2.27;2.00;;;6.60;78.00;;;;;;5008848;28;20556;-87
2022/04/02 11:43:42;;;;;;;3.10;2.20;;;6.80;77.90;;;;;;5011625;28;20423;-87
2022/04/02 11:46:10;;;;;;;5.57;2.70;;;7.00;78.20;;;;;;5029365;28;20510;-86
2022/04/02 11:48:51;;;;;;;3.80;2.90;;;7.10;78.30;;;;;;5031239;28;20457;-87
2022/04/02 11:51:23;;;;;;;3.73;2.43;;;7.00;78.80;;;;;;5032390;28;20862;-87
2022/04/02 11:53:50;;;;;;;5.23;2.70;;;7.00;78.90;;;;;;5031033;28;20419;-87
2022/04/02 11:56:29;;;;;;;4.83;2.80;;;6.80;77.30;;;;;;5031022;28;20419;-86
2022/04/02 11:59:05;;;;;;;3.10;2.13;;;6.70;77.60;;;;;;5032354;28;20606;-87
2022/04/02 12:01:45;;;;;;;3.40;3.00;;;6.70;77.30;;;;;;5032505;28;20427;-87
2022/04/02 12:04:15;;;;;;;3.93;2.27;;;6.70;77.20;;;;;;5030665;28;20414;-87
2022/04/02 12:06:42;;;;;;;4.33;2.50;;;6.70;78.30;;;;;;5032169;28;20416;-87
2022/04/02 12:09:13;;;;;;;8.30;2.80;;;6.80;77.30;;;;;;5030918;28;20469;-87
2022/04/02 12:11:43;;;;;;;4.00;2.20;;;6.90;77.40;;;;;;5031112;28;20469;-87
2022/04/02 12:14:10;;;;;;;3.73;2.60;;;6.80;76.90;;;;;;5030427;28;20529;-87
2022/04/02 12:16:38;;;;;;;4.90;2.10;;;6.60;76.40;;;;;;5031085;28;20411;-88
2022/04/02 12:19:09;;;;;;;9.63;2.70;;;6.50;76.70;;;;;;5031099;28;20911;-86
2022/04/02 12:21:40;;;;;;;4.90;2.60;;;6.70;76.50;;;;;;5029464;28;20478;-87
2022/04/02 12:24:14;;;;;;;3.03;2.00;;;6.80;76.60;;;;;;5011800;28;20416;-87
2022/04/02 12:26:43;;;;;;;3.93;2.00;;;6.90;75.80;;;;;;5044154;28;20923;-87
2022/04/02 12:29:18;;;;;;;2.47;1.90;;;6.90;74.50;;;;;;5043428;28;20740;-87
2022/04/02 12:31:50;;;;;;;3.80;2.77;;;6.80;75.00;;;;;;5010685;28;20443;-87
2022/04/02 12:34:21;;;;;;;2.93;2.30;;;6.90;74.70;;;;;;5010524;28;20420;-87
2022/04/02 12:36:48;;;;;;;2.07;1.87;;;6.90;74.40;;;;;;5010612;28;20423;-86
2022/04/02 12:39:19;;;;;;;3.40;2.23;;;6.90;74.30;;;;;;5043716;28;20476;-86
2022/04/02 12:41:47;;;;;;;2.73;1.80;;;6.90;74.10;;;;;;5010623;28;20436;-87
2022/04/02 12:44:17;;;;;;;3.27;1.97;;;6.90;74.40;;;;;;5020734;28;20481;-87
2022/04/02 12:46:42;;;;;;;3.20;2.07;;;7.00;73.70;;;;;;5030083;28;20824;-87
2022/04/02 12:49:08;;;;;;;4.67;2.13;;;7.10;73.50;;;;;;5029743;28;20427;-87
2022/04/02 12:51:34;;;;;;;8.60;2.20;;;7.10;74.30;;;;;;5030284;28;20258;-87
2022/04/02 12:54:03;;;;;;;4.13;2.30;;;7.10;74.80;;;;;;5029925;28;20188;-87
2022/04/02 12:56:34;;;;;;;3.33;2.40;;;7.10;75.30;;;;;;5029125;28;20800;-87
2022/04/02 12:59:00;;;;;;;4.23;1.87;;;7.00;75.50;;;;;;5030930;28;20454;-86
2022/04/02 13:01:25;;;;;;;3.90;2.53;;;7.00;76.40;;;;;;5029875;28;20439;-86
2022/04/02 13:04:08;;;;;;;5.20;2.30;;;7.00;76.50;;;;;;5029736;28;20420;-87
2022/04/02 13:06:55;;;;;;;3.60;2.30;;;7.10;76.30;;;;;;5030277;28;20176;-87
2022/04/02 13:09:22;;;;;;;4.23;2.70;;;7.20;76.20;;;;;;5029982;28;20499;-87